Time,TemperatureF,DewpointF,PressureIn,WindDirection,WindDirectionDegrees,WindSpeedMPH,WindSpeedGustMPH,Humidity,HourlyPrecipIn,Conditions,Clouds,dailyrainin,SolarRadiationWatts/m^2,SoftwareType,DateUTC
2013-08-01 00:07:00,63.1,61.0,30.03,WSW,258,0.0,-999.0,94,-99.99,,,0.00,0,weatherlink.com 1.10,2013-08-01 04:07:00,
2013-08-01 00:22:00,62.7,61.0,30.02,WSW,258,0.0,-999.0,94,-99.99,,,0.00,0,weatherlink.com 1.10,2013-08-01 04:22:00,
2013-08-01 00:37:00,62.5,61.0,30.02,WSW,258,0.0,-999.0,95,-99.99,,,0.00,0,weatherlink.com 1.10,2013-08-01 04:37:00,
2013-08-01 00:52:00,62.4,61.0,30.02,WSW,258,0.0,-999.0,95,-99.99,,,0.00,0,weatherlink.com 1.10,2013-08-01 04:52:00,
2013-08-01 01:07:00,62.3,61.0,30.01,WSW,258,0.0,-999.0,95,-99.99,,,0.00,0,weatherlink.com 1.10,2013-08-01 05:07:00,
2013-08-01 01:22:00,62.2,61.0,30.01,WSW,258,0.0,-999.0,95,-99.99,,,0.00,0,weatherlink.com 1.10,2013-08-01 05:22:00,
2013-08-01 01:37:00,61.8,60.0,30.01,WSW,258,0.0,-999.0,95,-99.99,,,0.00,0,weatherlink.com 1.10,2013-08-01 05:37:00,
2013-08-01 01:52:00,61.4,60.0,30.00,WSW,258,0.0,-999.0,95,-99.99,,,0.00,0,weatherlink.com 1.10,2013-08-01 05:52:00,
2013-08-01 02:07:00,61.1,60.0,30.00,WSW,258,0.0,-999.0,96,-99.99,,,0.00,0,weatherlink.com 1.10,2013-08-01 06:07:00,
2013-08-01 02:22:00,60.9,60.0,29.99,WSW,258,0.0,-999.0,96,-99.99,,,0.00,0,weatherlink.com 1.10,2013-08-01 06:22:00,
2013-08-01 02:37:00,60.7,60.0,29.99,WSW,258,0.0,-999.0,96,-99.99,,,0.00,0,weatherlink.com 1.10,2013-08-01 06:37:00,
2013-08-01 02:52:00,60.4,59.0,29.99,WSW,258,0.0,-999.0,96,-99.99,,,0.00,0,weatherlink.com 1.10,2013-08-01 06:52:00,
2013-08-01 03:07:00,60.4,59.0,29.99,WSW,258,0.0,-999.0,96,-99.99,,,0.00,0,weatherlink.com 1.10,2013-08-01 07:07:00,
2013-08-01 03:22:00,60.3,59.0,29.98,WSW,258,0.0,-999.0,96,-99.99,,,0.00,0,weatherlink.com 1.10,2013-08-01 07:22:00,
2013-08-01 03:37:00,60.5,59.0,29.97,WSW,258,0.0,-999.0,96,-99.99,,,0.00,0,weatherlink.com 1.10,2013-08-01 07:37:00,
2013-08-01 03:52:00,60.3,59.0,29.96,WSW,258,0.0,-999.0,96,-99.99,,,0.00,0,weatherlink.com 1.10,2013-08-01 07:52:00,
2013-08-01 04:22:00,59.9,59.0,29.96,WSW,258,0.0,-999.0,96,-99.99,,,0.00,0,weatherlink.com 1.10,2013-08-01 08:22:00,
2013-08-01 04:37:00,59.7,59.0,29.96,WSW,258,0.0,-999.0,96,-99.99,,,0.00,0,weatherlink.com 1.10,2013-08-01 08:37:00,
2013-08-01 04:52:00,59.6,59.0,29.96,WSW,258,0.0,-999.0,97,-99.99,,,0.00,0,weatherlink.com 1.10,2013-08-01 08:52:00,
2013-08-01 05:22:00,59.7,59.0,29.96,WSW,258,0.0,-999.0,97,-99.99,,,0.00,0,weatherlink.com 1.10,2013-08-01 09:22:00,
2013-08-01 05:37:00,59.8,59.0,29.96,WSW,258,0.0,-999.0,97,-99.99,,,0.00,0,weatherlink.com 1.10,2013-08-01 09:37:00,
2013-08-01 06:07:00,60.0,59.0,29.96,WSW,258,0.0,-999.0,97,-99.99,,,0.00,12,weatherlink.com 1.10,2013-08-01 10:07:00,
2013-08-01 06:37:00,60.4,60.0,29.96,WSW,258,0.0,-999.0,97,-99.99,,,0.00,26,weatherlink.com 1.10,2013-08-01 10:37:00,
2013-08-01 06:52:00,60.7,60.0,29.95,WSW,258,0.0,-999.0,97,-99.99,,,0.00,26,weatherlink.com 1.10,2013-08-01 10:52:00,
2013-08-01 07:07:00,61.0,60.0,29.96,WSW,258,0.0,-999.0,97,-99.99,,,0.00,18,weatherlink.com 1.10,2013-08-01 11:07:00,
2013-08-01 07:52:00,62.5,62.0,29.95,WSW,258,0.0,-999.0,97,-99.99,,,0.00,121,weatherlink.com 1.10,2013-08-01 11:52:00,
2013-08-01 08:22:00,63.7,63.0,29.95,WSW,258,0.0,-999.0,97,-99.99,,,0.00,139,weatherlink.com 1.10,2013-08-01 12:22:00,
2013-08-01 08:37:00,64.5,63.0,29.95,WSW,258,0.0,-999.0,96,-99.99,,,0.00,155,weatherlink.com 1.10,2013-08-01 12:37:00,
2013-08-01 09:07:00,67.3,66.0,29.94,SW,229,0.0,-999.0,94,-99.99,,,0.00,378,weatherlink.com 1.10,2013-08-01 13:07:00,
2013-08-01 09:22:00,70.5,68.0,29.93,SSE,155,1.0,-999.0,91,-99.99,,,0.00,571,weatherlink.com 1.10,2013-08-01 13:22:00,
2013-08-01 09:37:00,73.2,68.0,29.92,SSW,203,3.0,-999.0,83,-99.99,,,0.00,462,weatherlink.com 1.10,2013-08-01 13:37:00,
2013-08-01 10:07:00,74.3,67.0,29.92,SSW,192,1.0,-999.0,79,-99.99,,,0.00,353,weatherlink.com 1.10,2013-08-01 14:07:00,
2013-08-01 10:22:00,75.4,68.0,29.92,South,171,5.0,-999.0,77,-99.99,,,0.00,295,weatherlink.com 1.10,2013-08-01 14:22:00,
2013-08-01 10:52:00,75.3,66.0,29.92,SW,223,3.0,-999.0,72,-99.99,,,0.00,313,weatherlink.com 1.10,2013-08-01 14:52:00,
2013-08-01 11:07:00,75.0,66.0,29.91,ESE,109,5.0,-999.0,73,-99.99,,,0.00,404,weatherlink.com 1.10,2013-08-01 15:07:00,
2013-08-01 11:22:00,74.1,65.0,29.91,SE,134,5.0,-999.0,73,-99.99,,,0.00,146,weatherlink.com 1.10,2013-08-01 15:22:00,
2013-08-01 12:07:00,70.2,67.0,29.91,SSW,192,1.0,-999.0,88,-99.99,,,0.03,49,weatherlink.com 1.10,2013-08-01 16:07:00,
2013-08-01 12:22:00,69.3,67.0,29.91,West,269,6.0,-999.0,91,-99.99,,,0.06,139,weatherlink.com 1.10,2013-08-01 16:22:00,
2013-08-01 12:37:00,68.6,66.0,29.90,South,169,2.0,-999.0,92,-99.99,,,0.07,195,weatherlink.com 1.10,2013-08-01 16:37:00,
2013-08-01 12:52:00,68.4,65.0,29.89,SSE,160,2.0,-999.0,89,-99.99,,,0.07,107,weatherlink.com 1.10,2013-08-01 16:52:00,
2013-08-01 13:07:00,68.3,66.0,29.90,South,191,3.0,-999.0,92,-99.99,,,0.07,86,weatherlink.com 1.10,2013-08-01 17:07:00,
2013-08-01 13:22:00,68.1,66.0,29.90,SW,230,0.0,-999.0,94,-99.99,,,0.10,111,weatherlink.com 1.10,2013-08-01 17:22:00,
2013-08-01 13:37:00,68.2,67.0,29.90,SW,215,0.0,-999.0,94,-99.99,,,0.11,114,weatherlink.com 1.10,2013-08-01 17:37:00,
2013-08-01 13:52:00,68.1,66.0,29.90,SSW,209,2.0,-999.0,94,-99.99,,,0.11,47,weatherlink.com 1.10,2013-08-01 17:52:00,
2013-08-01 14:22:00,66.9,65.0,29.90,SSW,196,2.0,-999.0,94,-99.99,,,0.17,54,weatherlink.com 1.10,2013-08-01 18:22:00,
2013-08-01 14:52:00,66.3,65.0,29.89,South,181,3.0,-999.0,95,-99.99,,,0.26,98,weatherlink.com 1.10,2013-08-01 18:52:00,
2013-08-01 15:07:00,66.5,65.0,29.89,South,179,5.0,-999.0,96,-99.99,,,0.27,121,weatherlink.com 1.10,2013-08-01 19:07:00,
2013-08-01 16:07:00,67.2,66.0,29.88,SSE,157,2.0,-999.0,96,-99.99,,,0.28,111,weatherlink.com 1.10,2013-08-01 20:07:00,
2013-08-01 16:22:00,67.2,66.0,29.87,SW,227,1.0,-999.0,95,-99.99,,,0.28,109,weatherlink.com 1.10,2013-08-01 20:22:00,
2013-08-01 16:37:00,67.1,66.0,29.87,South,188,5.0,-999.0,95,-99.99,,,0.28,86,weatherlink.com 1.10,2013-08-01 20:37:00,
2013-08-01 16:52:00,67.1,66.0,29.86,SE,146,6.0,-999.0,95,-99.99,,,0.28,58,weatherlink.com 1.10,2013-08-01 20:52:00,
2013-08-01 17:07:00,67.0,65.0,29.86,SSW,196,5.0,-999.0,94,-99.99,,,0.28,72,weatherlink.com 1.10,2013-08-01 21:07:00,
2013-08-01 17:22:00,66.9,65.0,29.86,South,178,1.0,-999.0,94,-99.99,,,0.28,65,weatherlink.com 1.10,2013-08-01 21:22:00,
2013-08-01 17:37:00,66.8,65.0,29.86,SSE,158,4.0,-999.0,94,-99.99,,,0.28,47,weatherlink.com 1.10,2013-08-01 21:37:00,
2013-08-01 18:07:00,66.6,65.0,29.86,South,173,0.0,-999.0,94,-99.99,,,0.28,35,weatherlink.com 1.10,2013-08-01 22:07:00,
2013-08-01 18:22:00,66.6,65.0,29.85,SSE,153,0.0,-999.0,94,-99.99,,,0.28,16,weatherlink.com 1.10,2013-08-01 22:22:00,
2013-08-01 18:37:00,66.6,65.0,29.86,SSE,165,0.0,-999.0,94,-99.99,,,0.28,16,weatherlink.com 1.10,2013-08-01 22:37:00,
2013-08-01 18:52:00,66.5,65.0,29.85,South,186,1.0,-999.0,95,-99.99,,,0.29,18,weatherlink.com 1.10,2013-08-01 22:52:00,
2013-08-01 19:07:00,66.2,65.0,29.86,SSE,157,0.0,-999.0,96,-99.99,,,0.30,25,weatherlink.com 1.10,2013-08-01 23:07:00,
2013-08-01 19:22:00,66.1,65.0,29.86,SSW,196,0.0,-999.0,96,-99.99,,,0.30,12,weatherlink.com 1.10,2013-08-01 23:22:00,
2013-08-01 19:37:00,66.1,65.0,29.86,SSW,192,0.0,-999.0,96,-99.99,,,0.31,11,weatherlink.com 1.10,2013-08-01 23:37:00,
2013-08-01 20:07:00,65.8,65.0,29.86,SSW,198,0.0,-999.0,96,-99.99,,,0.32,0,weatherlink.com 1.10,2013-08-02 00:07:00,
2013-08-01 20:22:00,65.7,65.0,29.85,SSW,198,0.0,-999.0,97,-99.99,,,0.32,0,weatherlink.com 1.10,2013-08-02 00:22:00,
2013-08-01 20:52:00,65.8,65.0,29.85,SW,215,0.0,-999.0,97,-99.99,,,0.32,0,weatherlink.com 1.10,2013-08-02 00:52:00,
2013-08-01 21:22:00,66.0,65.0,29.85,SSW,203,0.0,-999.0,97,-99.99,,,0.32,0,weatherlink.com 1.10,2013-08-02 01:22:00,
2013-08-01 21:52:00,66.1,65.0,29.84,South,187,0.0,-999.0,97,-99.99,,,0.32,0,weatherlink.com 1.10,2013-08-02 01:52:00,
2013-08-01 22:07:00,66.2,65.0,29.84,WSW,254,0.0,-999.0,97,-99.99,,,0.32,0,weatherlink.com 1.10,2013-08-02 02:07:00,
2013-08-01 22:37:00,66.3,66.0,29.83,WSW,246,0.0,-999.0,97,-99.99,,,0.32,0,weatherlink.com 1.10,2013-08-02 02:37:00,
2013-08-01 23:07:00,66.4,66.0,29.82,WSW,246,0.0,-999.0,97,-99.99,,,0.33,0,weatherlink.com 1.10,2013-08-02 03:07:00,
2013-08-01 23:22:00,66.4,66.0,29.82,WSW,246,0.0,-999.0,97,-99.99,,,0.33,0,weatherlink.com 1.10,2013-08-02 03:22:00,